Mother M — V7YS3 — position and weather

sailwx.info

Track history (hours):
 
Tides and Currents Weather Stations Pressure Air Temp Water Temp Dewpoint Dewpoint Depression Visibility Wind Speed Wind Dir Waves Ship Positions

Mother M

Last reported at 2017-Sep-21 23:52 UTC. Time now 2017-Sep-23 05:56 UTC.
Position N 10°59' W 074°45'.

Length 180 m; draft 7.6 m.

Type: Cargo ship. MMSI: 538004721.

Date/timePositionNaut miles runAvg speedWind from/ knotsBaromVisibWave heightAir tempDewpointWater temp
2017-Sep-21 23:52N 10°59' W 074°45'0 0.0
2017-Sep-21 22:40N 10°59' W 074°45'0 0.0
2017-Sep-21 22:11N 10°59' W 074°45'0 0.3
2017-Sep-21 21:57N 10°59' W 074°45'3 4.7
2017-Sep-21 21:13N 11°02' W 074°48'2 8.2
2017-Sep-21 20:59N 11°03' W 074°49'4 8.0
2017-Sep-21 20:31N 11°06' W 074°51'2 3.1
2017-Sep-21 19:48N 11°07' W 074°53'2 6.5
2017-Sep-21 19:30N 11°09' W 074°54'0 0.5
2017-Sep-21 19:00N 11°09' W 074°54'  
Track history (hours):
 
Tides and Currents Weather Stations Pressure Air Temp Water Temp Dewpoint Dewpoint Depression Visibility Wind Speed Wind Dir Waves Ship Positions

Mother M

Last reported at 2017-Sep-21 23:52 UTC. Time now 2017-Sep-23 05:56 UTC.
Position N 10°59' W 074°45'.

Length 180 m; draft 7.6 m.

Type: Cargo ship. MMSI: 538004721.

Date/timePositionNaut miles runAvg speedWind from/ knotsBaromVisibWave heightAir tempDewpointWater temp
2017-Sep-21 23:52N 10°59' W 074°45'0 0.0
2017-Sep-21 22:40N 10°59' W 074°45'0 0.0
2017-Sep-21 22:11N 10°59' W 074°45'0 0.3
2017-Sep-21 21:57N 10°59' W 074°45'3 4.7
2017-Sep-21 21:13N 11°02' W 074°48'2 8.2
2017-Sep-21 20:59N 11°03' W 074°49'4 8.0
2017-Sep-21 20:31N 11°06' W 074°51'2 3.1
2017-Sep-21 19:48N 11°07' W 074°53'2 6.5
2017-Sep-21 19:30N 11°09' W 074°54'0 0.5
2017-Sep-21 19:00N 11°09' W 074°54'  

Dump ship's entire track history